PWSweather.com
Personal Weather Stations
Station Observations
KWIPARKF
Flambeau River State Forest, Park Falls, WI 54552

Flambeau River State ForestPark Falls, WI 54552

Lat: 45.81943, Lon: -90.61676

Elevation: 1476

Station Type: Davis Vantage Pro2 Plus

www.flambeauforestweather.com

High Low Average
Temperature 67.2°F19.6°C 56.0°F13.3°C 61.9°F16.6°C
Dew Point 61.8°F16.6°C 54.1°F12.3°C 59.2°F15.1°C
Winds Calm Calm Calm Calm Calm SWCalm SW
Wind Gusts -- -- --
Humidity 100% 80% 91%
Pressure 30.02 in1016.6 mb 29.84 in1010.5 mb -
Precipitation 0.03 in0.8 mm - -
Hour Temp Dew Point Humidity Winds Wind Gusts Pressure Precip Precip Rate Daily Precip Total
12:00 AM 62.3°F16.8°C 60.6°F15.9°C 94% Calm Calm -- 29.85 in1010.8 mb - 0.00 in0.0 mm 0.00 in0.0 mm
12:10 AM 62.2°F16.8°C 60.8°F16.0°C 95% Calm Calm -- 29.85 in1010.8 mb - 0.00 in0.0 mm 0.00 in0.0 mm
12:20 AM 62.1°F16.7°C 60.7°F15.9°C 95% Calm Calm -- 29.85 in1010.8 mb - 0.00 in0.0 mm 0.00 in0.0 mm
12:30 AM 62.0°F16.7°C 60.6°F15.9°C 95% Calm Calm -- 29.85 in1010.8 mb - 0.00 in0.0 mm 0.00 in0.0 mm
12:40 AM 61.9°F16.6°C 60.5°F15.8°C 95% Calm Calm -- 29.85 in1010.8 mb - 0.00 in0.0 mm 0.00 in0.0 mm
12:50 AM 61.8°F16.6°C 60.4°F15.8°C 95% Calm Calm -- 29.85 in1010.8 mb - 0.00 in0.0 mm 0.00 in0.0 mm
01:00 AM 61.8°F16.6°C 60.4°F15.8°C 95% Calm Calm -- 29.85 in1010.8 mb - 0.00 in0.0 mm 0.00 in0.0 mm
01:10 AM 61.8°F16.6°C 60.3°F15.7°C 95% Calm Calm -- 29.85 in1010.8 mb - 0.00 in0.0 mm 0.00 in0.0 mm
01:20 AM 61.7°F16.5°C 60.5°F15.8°C 96% Calm Calm -- 29.85 in1010.8 mb - 0.00 in0.0 mm 0.00 in0.0 mm
01:30 AM 61.7°F16.5°C 60.5°F15.8°C 96% Calm Calm -- 29.85 in1010.8 mb - 0.00 in0.0 mm 0.00 in0.0 mm
01:40 AM 61.7°F16.5°C 60.5°F15.8°C 96% Calm Calm -- 29.85 in1010.8 mb - 0.00 in0.0 mm 0.00 in0.0 mm
01:50 AM 61.7°F16.5°C 60.5°F15.8°C 96% Calm Calm -- 29.85 in1010.8 mb - 0.00 in0.0 mm 0.00 in0.0 mm
02:00 AM 61.7°F16.5°C 60.5°F15.8°C 96% Calm Calm -- 29.85 in1010.8 mb - 0.00 in0.0 mm 0.00 in0.0 mm
02:10 AM 61.7°F16.5°C 60.5°F15.8°C 96% Calm Calm -- 29.84 in1010.5 mb - 0.00 in0.0 mm 0.00 in0.0 mm
02:20 AM 61.7°F16.5°C 60.5°F15.8°C 96% Calm Calm -- 29.84 in1010.5 mb - 0.00 in0.0 mm 0.00 in0.0 mm
02:30 AM 61.8°F16.6°C 60.9°F16.1°C 97% Calm Calm -- 29.84 in1010.5 mb - 0.00 in0.0 mm 0.00 in0.0 mm
02:40 AM 61.8°F16.6°C 60.9°F16.1°C 97% Calm Calm -- 29.84 in1010.5 mb - 0.02 in0.5 mm 0.02 in0.5 mm
02:50 AM 61.9°F16.6°C 61.1°F16.2°C 97% Calm Calm -- 29.84 in1010.5 mb - 0.02 in0.5 mm 0.02 in0.5 mm
03:00 AM 62.0°F16.7°C 61.1°F16.2°C 97% Calm Calm -- 29.85 in1010.8 mb - 0.02 in0.5 mm 0.02 in0.5 mm
03:10 AM 62.0°F16.7°C 61.1°F16.2°C 97% Calm Calm -- 29.85 in1010.8 mb - 0.02 in0.5 mm 0.02 in0.5 mm
03:20 AM 61.8°F16.6°C 60.9°F16.1°C 97% Calm Calm -- 29.85 in1010.8 mb - 0.02 in0.5 mm 0.02 in0.5 mm
03:30 AM 61.7°F16.5°C 60.8°F16.0°C 97% Calm Calm -- 29.84 in1010.5 mb - 0.02 in0.5 mm 0.02 in0.5 mm
03:40 AM 61.7°F16.5°C 60.8°F16.0°C 97% Calm Calm -- 29.85 in1010.8 mb - 0.00 in0.0 mm 0.02 in0.5 mm
03:50 AM 61.6°F16.4°C 60.7°F15.9°C 97% Calm Calm -- 29.85 in1010.8 mb - 0.00 in0.0 mm 0.02 in0.5 mm
04:00 AM 61.6°F16.4°C 60.7°F15.9°C 97% Calm Calm -- 29.85 in1010.8 mb - 0.00 in0.0 mm 0.02 in0.5 mm
04:10 AM 61.6°F16.4°C 60.7°F15.9°C 97% Calm Calm -- 29.85 in1010.8 mb - 0.00 in0.0 mm 0.02 in0.5 mm
04:20 AM 61.5°F16.4°C 61.5°F16.4°C 100% Calm Calm -- 29.85 in1010.8 mb - 0.00 in0.0 mm 0.02 in0.5 mm
04:30 AM 61.5°F16.4°C 61.5°F16.4°C 100% Calm Calm -- 29.85 in1010.8 mb - 0.00 in0.0 mm 0.02 in0.5 mm
04:40 AM 61.5°F16.4°C 61.5°F16.4°C 100% Calm Calm -- 29.85 in1010.8 mb - 0.00 in0.0 mm 0.02 in0.5 mm
04:50 AM 61.2°F16.2°C 61.3°F16.3°C 100% Calm Calm -- 29.86 in1011.2 mb - 0.00 in0.0 mm 0.02 in0.5 mm
05:00 AM 61.1°F16.2°C 60.2°F15.7°C 97% Calm Calm -- 29.86 in1011.2 mb - 0.00 in0.0 mm 0.02 in0.5 mm
05:10 AM 60.8°F16.0°C 60.5°F15.8°C 99% Calm Calm -- 29.87 in1011.5 mb - 0.00 in0.0 mm 0.02 in0.5 mm
05:20 AM 60.7°F15.9°C 60.7°F15.9°C 100% Calm Calm -- 29.87 in1011.5 mb - 0.00 in0.0 mm 0.02 in0.5 mm
05:30 AM 60.5°F15.8°C 59.6°F15.3°C 97% Calm Calm -- 29.88 in1011.9 mb - 0.00 in0.0 mm 0.02 in0.5 mm
05:40 AM 60.4°F15.8°C 59.5°F15.3°C 97% Calm Calm -- 29.88 in1011.9 mb - 0.00 in0.0 mm 0.02 in0.5 mm
05:50 AM 60.0°F15.6°C 59.1°F15.1°C 97% Calm Calm -- 29.88 in1011.9 mb - 0.00 in0.0 mm 0.02 in0.5 mm
06:00 AM 59.6°F15.3°C 58.7°F14.8°C 97% Calm Calm -- 29.88 in1011.9 mb - 0.00 in0.0 mm 0.02 in0.5 mm
06:10 AM 58.9°F14.9°C 57.7°F14.3°C 96% Calm Calm -- 29.89 in1012.2 mb - 0.00 in0.0 mm 0.02 in0.5 mm
06:20 AM 58.4°F14.7°C 57.6°F14.2°C 97% Calm Calm -- 29.89 in1012.2 mb - 0.00 in0.0 mm 0.02 in0.5 mm
06:30 AM 57.9°F14.4°C 57.1°F13.9°C 97% Calm Calm -- 29.89 in1012.2 mb - 0.00 in0.0 mm 0.02 in0.5 mm
06:40 AM 57.5°F14.2°C 56.4°F13.6°C 96% Calm Calm -- 29.89 in1012.2 mb - 0.00 in0.0 mm 0.02 in0.5 mm
06:50 AM 57.2°F14.0°C 56.1°F13.4°C 96% Calm Calm -- 29.90 in1012.5 mb - 0.00 in0.0 mm 0.02 in0.5 mm
07:00 AM 57.2°F14.0°C 56.4°F13.6°C 97% Calm Calm -- 29.89 in1012.2 mb - 0.00 in0.0 mm 0.02 in0.5 mm
07:10 AM 57.1°F13.9°C 56.3°F13.5°C 97% Calm Calm -- 29.89 in1012.2 mb - 0.00 in0.0 mm 0.02 in0.5 mm
07:20 AM 57.2°F14.0°C 56.4°F13.6°C 97% Calm Calm -- 29.90 in1012.5 mb - 0.00 in0.0 mm 0.02 in0.5 mm
07:30 AM 57.3°F14.1°C 56.4°F13.6°C 97% Calm Calm -- 29.91 in1012.9 mb - 0.00 in0.0 mm 0.02 in0.5 mm
07:40 AM 57.3°F14.1°C 56.5°F13.6°C 97% Calm Calm -- 29.91 in1012.9 mb - 0.00 in0.0 mm 0.02 in0.5 mm
07:50 AM 57.5°F14.2°C 56.7°F13.7°C 97% Calm Calm -- 29.91 in1012.9 mb - 0.00 in0.0 mm 0.02 in0.5 mm
08:00 AM 57.8°F14.3°C 57.0°F13.9°C 97% Calm Calm -- 29.92 in1013.2 mb - 0.00 in0.0 mm 0.02 in0.5 mm
08:10 AM 58.1°F14.5°C 57.0°F13.9°C 96% Calm Calm -- 29.91 in1012.9 mb - 0.00 in0.0 mm 0.02 in0.5 mm
08:20 AM 58.4°F14.7°C 57.0°F13.9°C 95% Calm Calm -- 29.92 in1013.2 mb - 0.00 in0.0 mm 0.02 in0.5 mm
08:30 AM 58.8°F14.9°C 57.4°F14.1°C 95% Calm Calm -- 29.91 in1012.9 mb - 0.00 in0.0 mm 0.02 in0.5 mm
08:40 AM 59.0°F15.0°C 57.3°F14.1°C 94% Calm Calm -- 29.91 in1012.9 mb - 0.00 in0.0 mm 0.02 in0.5 mm
08:50 AM 59.1°F15.1°C 57.4°F14.1°C 94% Calm Calm -- 29.92 in1013.2 mb - 0.00 in0.0 mm 0.02 in0.5 mm
09:00 AM 59.2°F15.1°C 57.2°F14.0°C 93% Calm Calm -- 29.91 in1012.9 mb - 0.00 in0.0 mm 0.02 in0.5 mm
09:10 AM 59.8°F15.4°C 57.8°F14.3°C 93% Calm Calm -- 29.91 in1012.9 mb - 0.00 in0.0 mm 0.02 in0.5 mm
09:20 AM 60.2°F15.7°C 57.6°F14.2°C 91% Calm Calm -- 29.91 in1012.9 mb - 0.00 in0.0 mm 0.02 in0.5 mm
09:30 AM 60.8°F16.0°C 57.9°F14.4°C 90% Calm Calm -- 29.91 in1012.9 mb - 0.00 in0.0 mm 0.02 in0.5 mm
09:40 AM 61.6°F16.4°C 58.0°F14.4°C 88% Calm Calm -- 29.91 in1012.9 mb - 0.00 in0.0 mm 0.02 in0.5 mm
09:50 AM 61.5°F16.4°C 58.6°F14.8°C 90% Calm Calm -- 29.91 in1012.9 mb - 0.00 in0.0 mm 0.02 in0.5 mm
10:00 AM 61.8°F16.6°C 58.2°F14.6°C 88% Calm Calm -- 29.92 in1013.2 mb - 0.00 in0.0 mm 0.02 in0.5 mm
10:10 AM 61.9°F16.6°C 58.6°F14.8°C 89% Calm Calm -- 29.92 in1013.2 mb - 0.00 in0.0 mm 0.02 in0.5 mm
10:20 AM 62.0°F16.7°C 59.0°F15.0°C 90% Calm Calm -- 29.92 in1013.2 mb - 0.00 in0.0 mm 0.02 in0.5 mm
10:30 AM 62.5°F16.9°C 59.2°F15.1°C 89% Calm Calm -- 29.92 in1013.2 mb - 0.00 in0.0 mm 0.02 in0.5 mm
10:40 AM 62.7°F17.1°C 59.4°F15.2°C 89% Calm Calm -- 29.92 in1013.2 mb - 0.00 in0.0 mm 0.02 in0.5 mm
10:50 AM 62.9°F17.2°C 58.6°F14.8°C 86% Calm Calm -- 29.93 in1013.5 mb - 0.00 in0.0 mm 0.02 in0.5 mm
11:00 AM 63.3°F17.4°C 60.0°F15.6°C 89% Calm Calm -- 29.93 in1013.5 mb - 0.00 in0.0 mm 0.02 in0.5 mm
11:10 AM 63.1°F17.3°C 59.5°F15.3°C 88% Calm Calm -- 29.93 in1013.5 mb - 0.00 in0.0 mm 0.02 in0.5 mm
11:20 AM 63.8°F17.7°C 60.2°F15.7°C 88% Calm Calm -- 29.93 in1013.5 mb - 0.00 in0.0 mm 0.02 in0.5 mm
11:30 AM 63.9°F17.7°C 59.6°F15.3°C 86% Calm Calm -- 29.93 in1013.5 mb - 0.00 in0.0 mm 0.02 in0.5 mm
11:40 AM 64.2°F17.9°C 59.6°F15.3°C 85% Calm Calm -- 29.93 in1013.5 mb - 0.00 in0.0 mm 0.02 in0.5 mm
11:50 AM 64.6°F18.1°C 61.0°F16.1°C 88% Calm Calm -- 29.93 in1013.5 mb - 0.00 in0.0 mm 0.02 in0.5 mm
12:00 PM 64.5°F18.1°C 60.2°F15.7°C 86% Calm Calm -- 29.93 in1013.5 mb - 0.00 in0.0 mm 0.02 in0.5 mm
12:10 PM 65.2°F18.4°C 60.6°F15.9°C 85% Calm Calm -- 29.93 in1013.5 mb - 0.00 in0.0 mm 0.02 in0.5 mm
12:20 PM 65.2°F18.4°C 59.6°F15.3°C 82% Calm Calm -- 29.93 in1013.5 mb - 0.00 in0.0 mm 0.02 in0.5 mm
12:30 PM 66.1°F18.9°C 61.4°F16.3°C 85% Calm Calm -- 29.93 in1013.5 mb - 0.00 in0.0 mm 0.02 in0.5 mm
12:40 PM 66.1°F18.9°C 61.1°F16.2°C 84% Calm Calm -- 29.93 in1013.5 mb - 0.00 in0.0 mm 0.02 in0.5 mm
12:50 PM 65.7°F18.7°C 60.3°F15.7°C 83% Calm Calm -- 29.93 in1013.5 mb - 0.00 in0.0 mm 0.02 in0.5 mm
01:00 PM 65.8°F18.8°C 60.5°F15.8°C 83% Calm Calm -- 29.93 in1013.5 mb - 0.00 in0.0 mm 0.02 in0.5 mm
01:10 PM 65.5°F18.6°C 60.2°F15.7°C 83% Calm Calm -- 29.94 in1013.9 mb - 0.00 in0.0 mm 0.02 in0.5 mm
01:20 PM 65.5°F18.6°C 60.2°F15.7°C 83% Calm Calm -- 29.94 in1013.9 mb - 0.01 in0.3 mm 0.03 in0.8 mm
01:30 PM 65.0°F18.3°C 60.7°F15.9°C 86% Calm Calm -- 29.94 in1013.9 mb - 0.01 in0.3 mm 0.03 in0.8 mm
01:40 PM 65.0°F18.3°C 61.0°F16.1°C 87% Calm Calm -- 29.94 in1013.9 mb - 0.01 in0.3 mm 0.03 in0.8 mm
01:50 PM 65.0°F18.3°C 61.1°F16.2°C 87% Calm Calm -- 29.94 in1013.9 mb - 0.01 in0.3 mm 0.03 in0.8 mm
02:00 PM 66.2°F19.0°C 61.5°F16.4°C 85% Calm Calm -- 29.94 in1013.9 mb - 0.01 in0.3 mm 0.03 in0.8 mm
02:10 PM 66.8°F19.3°C 61.8°F16.6°C 84% Calm Calm -- 29.94 in1013.9 mb - 0.01 in0.3 mm 0.03 in0.8 mm
02:20 PM 66.8°F19.3°C 61.1°F16.2°C 82% Calm Calm -- 29.93 in1013.5 mb - 0.00 in0.0 mm 0.03 in0.8 mm
02:30 PM 66.3°F19.1°C 59.9°F15.5°C 80% Calm Calm -- 29.94 in1013.9 mb - 0.00 in0.0 mm 0.03 in0.8 mm
02:40 PM 65.7°F18.7°C 60.4°F15.8°C 83% Calm Calm -- 29.94 in1013.9 mb - 0.00 in0.0 mm 0.03 in0.8 mm
02:50 PM 65.6°F18.7°C 60.3°F15.7°C 83% Calm Calm -- 29.94 in1013.9 mb - 0.00 in0.0 mm 0.03 in0.8 mm
03:00 PM 65.6°F18.7°C 60.6°F15.9°C 84% Calm Calm -- 29.94 in1013.9 mb - 0.00 in0.0 mm 0.03 in0.8 mm
03:10 PM 65.6°F18.7°C 59.6°F15.3°C 81% Calm Calm -- 29.95 in1014.2 mb - 0.00 in0.0 mm 0.03 in0.8 mm
03:20 PM 66.3°F19.1°C 61.0°F16.1°C 83% Calm Calm -- 29.95 in1014.2 mb - 0.00 in0.0 mm 0.03 in0.8 mm
03:30 PM 67.1°F19.5°C 61.1°F16.2°C 81% Calm Calm -- 29.94 in1013.9 mb - 0.00 in0.0 mm 0.03 in0.8 mm
03:40 PM 67.2°F19.6°C 61.5°F16.4°C 82% Calm Calm -- 29.94 in1013.9 mb - 0.00 in0.0 mm 0.03 in0.8 mm
03:50 PM 67.1°F19.5°C 61.4°F16.3°C 82% Calm Calm -- 29.94 in1013.9 mb - 0.00 in0.0 mm 0.03 in0.8 mm
04:00 PM 66.5°F19.2°C 61.2°F16.2°C 83% Calm Calm -- 29.94 in1013.9 mb - 0.00 in0.0 mm 0.03 in0.8 mm
04:10 PM 66.5°F19.2°C 61.5°F16.4°C 84% Calm Calm -- 29.94 in1013.9 mb - 0.00 in0.0 mm 0.03 in0.8 mm
04:20 PM 66.7°F19.3°C 61.4°F16.3°C 83% Calm Calm -- 29.94 in1013.9 mb - 0.00 in0.0 mm 0.03 in0.8 mm
04:30 PM 66.6°F19.2°C 61.2°F16.2°C 83% Calm Calm -- 29.94 in1013.9 mb - 0.00 in0.0 mm 0.03 in0.8 mm
04:40 PM 65.6°F18.7°C 60.6°F15.9°C 84% Calm Calm -- 29.94 in1013.9 mb - 0.00 in0.0 mm 0.03 in0.8 mm
04:50 PM 65.3°F18.5°C 60.7°F15.9°C 85% Calm Calm -- 29.94 in1013.9 mb - 0.00 in0.0 mm 0.03 in0.8 mm
05:00 PM 65.1°F18.4°C 60.8°F16.0°C 86% Calm Calm -- 29.94 in1013.9 mb - 0.00 in0.0 mm 0.03 in0.8 mm
05:10 PM 65.0°F18.3°C 60.7°F15.9°C 86% Calm Calm -- 29.94 in1013.9 mb - 0.00 in0.0 mm 0.03 in0.8 mm
05:20 PM 64.7°F18.2°C 60.4°F15.8°C 86% Calm Calm -- 29.94 in1013.9 mb - 0.00 in0.0 mm 0.03 in0.8 mm
05:30 PM 65.2°F18.4°C 60.9°F16.1°C 86% Calm Calm -- 29.94 in1013.9 mb - 0.00 in0.0 mm 0.03 in0.8 mm
05:40 PM 65.8°F18.8°C 61.5°F16.4°C 86% Calm Calm -- 29.95 in1014.2 mb - 0.00 in0.0 mm 0.03 in0.8 mm
05:50 PM 65.3°F18.5°C 61.3°F16.3°C 87% Calm Calm -- 29.95 in1014.2 mb - 0.00 in0.0 mm 0.03 in0.8 mm
06:00 PM 65.0°F18.3°C 60.7°F15.9°C 86% Calm Calm -- 29.94 in1013.9 mb - 0.00 in0.0 mm 0.03 in0.8 mm
06:10 PM 64.8°F18.2°C 60.8°F16.0°C 87% Calm Calm -- 29.95 in1014.2 mb - 0.00 in0.0 mm 0.03 in0.8 mm
06:20 PM 64.8°F18.2°C 60.5°F15.8°C 86% Calm Calm -- 29.95 in1014.2 mb - 0.00 in0.0 mm 0.03 in0.8 mm
06:30 PM 64.8°F18.2°C 60.5°F15.8°C 86% Calm Calm -- 29.96 in1014.6 mb - 0.00 in0.0 mm 0.03 in0.8 mm
06:40 PM 64.8°F18.2°C 60.8°F16.0°C 87% Calm Calm -- 29.95 in1014.2 mb - 0.00 in0.0 mm 0.03 in0.8 mm
06:50 PM 64.3°F17.9°C 60.7°F15.9°C 88% Calm Calm -- 29.96 in1014.6 mb - 0.00 in0.0 mm 0.03 in0.8 mm
07:00 PM 64.0°F17.8°C 61.0°F16.1°C 90% Calm Calm -- 29.96 in1014.6 mb - 0.00 in0.0 mm 0.03 in0.8 mm
07:10 PM 63.8°F17.7°C 60.8°F16.0°C 90% Calm Calm -- 29.95 in1014.2 mb - 0.00 in0.0 mm 0.03 in0.8 mm
07:20 PM 63.7°F17.6°C 60.4°F15.8°C 89% Calm Calm -- 29.95 in1014.2 mb - 0.00 in0.0 mm 0.03 in0.8 mm
07:30 PM 63.3°F17.4°C 60.0°F15.6°C 89% Calm Calm -- 29.95 in1014.2 mb - 0.00 in0.0 mm 0.03 in0.8 mm
07:40 PM 63.3°F17.4°C 60.0°F15.6°C 89% Calm Calm -- 29.95 in1014.2 mb - 0.00 in0.0 mm 0.03 in0.8 mm
07:50 PM 63.2°F17.3°C 59.9°F15.5°C 89% Calm Calm -- 29.95 in1014.2 mb - 0.00 in0.0 mm 0.03 in0.8 mm
08:00 PM 63.2°F17.3°C 59.9°F15.5°C 89% Calm Calm -- 29.95 in1014.2 mb - 0.00 in0.0 mm 0.03 in0.8 mm
08:10 PM 63.0°F17.2°C 59.7°F15.4°C 89% Calm Calm -- 29.96 in1014.6 mb - 0.00 in0.0 mm 0.03 in0.8 mm
08:20 PM 62.8°F17.1°C 59.5°F15.3°C 89% Calm Calm -- 29.96 in1014.6 mb - 0.00 in0.0 mm 0.03 in0.8 mm
08:30 PM 62.5°F16.9°C 59.5°F15.3°C 90% Calm Calm -- 29.97 in1014.9 mb - 0.00 in0.0 mm 0.03 in0.8 mm
08:40 PM 62.3°F16.8°C 59.3°F15.2°C 90% Calm Calm -- 29.97 in1014.9 mb - 0.00 in0.0 mm 0.03 in0.8 mm
08:50 PM 62.2°F16.8°C 59.2°F15.1°C 90% Calm Calm -- 29.97 in1014.9 mb - 0.00 in0.0 mm 0.03 in0.8 mm
09:00 PM 62.0°F16.7°C 59.1°F15.1°C 90% Calm Calm -- 29.97 in1014.9 mb - 0.00 in0.0 mm 0.03 in0.8 mm
09:10 PM 61.7°F16.5°C 58.8°F14.9°C 90% Calm Calm -- 29.98 in1015.2 mb - 0.00 in0.0 mm 0.03 in0.8 mm
09:20 PM 61.4°F16.3°C 58.4°F14.7°C 90% Calm Calm -- 29.97 in1014.9 mb - 0.00 in0.0 mm 0.03 in0.8 mm
09:30 PM 60.9°F16.1°C 57.9°F14.4°C 90% Calm Calm -- 29.98 in1015.2 mb - 0.00 in0.0 mm 0.03 in0.8 mm
09:40 PM 60.4°F15.8°C 57.5°F14.2°C 90% Calm Calm -- 29.98 in1015.2 mb - 0.00 in0.0 mm 0.03 in0.8 mm
09:50 PM 60.0°F15.6°C 57.1°F13.9°C 90% Calm Calm -- 29.98 in1015.2 mb - 0.00 in0.0 mm 0.03 in0.8 mm
10:00 PM 59.6°F15.3°C 56.9°F13.8°C 91% Calm Calm -- 29.99 in1015.6 mb - 0.00 in0.0 mm 0.03 in0.8 mm
10:10 PM 59.1°F15.1°C 56.5°F13.6°C 91% Calm Calm -- 29.99 in1015.6 mb - 0.00 in0.0 mm 0.03 in0.8 mm
10:20 PM 58.7°F14.8°C 56.1°F13.4°C 91% Calm Calm -- 29.99 in1015.6 mb - 0.00 in0.0 mm 0.03 in0.8 mm
10:30 PM 58.2°F14.6°C 55.6°F13.1°C 91% Calm Calm -- 30.00 in1015.9 mb - 0.00 in0.0 mm 0.03 in0.8 mm
10:40 PM 57.7°F14.3°C 55.4°F13.0°C 92% Calm Calm -- 30.00 in1015.9 mb - 0.00 in0.0 mm 0.03 in0.8 mm
10:50 PM 57.3°F14.1°C 55.0°F12.8°C 92% Calm Calm -- 30.00 in1015.9 mb - 0.00 in0.0 mm 0.03 in0.8 mm
11:00 PM 56.9°F13.8°C 54.6°F12.6°C 92% Calm Calm -- 30.00 in1015.9 mb - 0.00 in0.0 mm 0.03 in0.8 mm
11:10 PM 56.6°F13.7°C 54.6°F12.6°C 93% Calm Calm -- 30.00 in1015.9 mb - 0.00 in0.0 mm 0.03 in0.8 mm
11:20 PM 56.3°F13.5°C 54.3°F12.4°C 93% Calm Calm -- 30.00 in1015.9 mb - 0.00 in0.0 mm 0.03 in0.8 mm
11:30 PM 56.1°F13.4°C 54.1°F12.3°C 93% Calm Calm -- 30.00 in1015.9 mb - 0.00 in0.0 mm 0.03 in0.8 mm
11:40 PM 56.0°F13.3°C 54.3°F12.4°C 94% Calm Calm -- 30.00 in1015.9 mb - 0.00 in0.0 mm 0.03 in0.8 mm
11:50 PM 56.0°F13.3°C 54.6°F12.6°C 95% Calm Calm -- 30.00 in1015.9 mb - 0.00 in0.0 mm 0.03 in0.8 mm